Time;durP1;ratioP1;P1;durP2;ratioP2;P2;SDS_P1;SDS_P2;PMS_P1;PMS_P2;Temp;Humidity;BMP_temperature;BMP_pressure;BME280_temperature;BME280_humidity;BME280_pressure;Samples;Min_cycle;Max_cycle;Signal;HPM_P1;HPM_P2
2022/12/29 00:00:33;;;;;;;14.80;9.65;;;5.40;99.90;;;;;;1913620;75;21042;-79
2022/12/29 00:03:25;;;;;;;13.48;9.35;;;5.40;99.90;;;;;;1897436;75;21097;-79
2022/12/29 00:06:18;;;;;;;13.18;10.13;;;5.40;99.90;;;;;;1891608;75;21132;-78
2022/12/29 00:09:13;;;;;;;13.28;9.45;;;5.40;99.90;;;;;;1907003;75;21108;-79
2022/12/29 00:12:07;;;;;;;13.78;9.45;;;5.50;99.90;;;;;;1903119;75;21090;-79
2022/12/29 00:18:13;;;;;;;14.28;9.43;;;5.40;99.90;;;;;;1880815;76;21151;-80
2022/12/29 00:37:05;;;;;;;12.93;9.98;;;5.20;99.90;;;;;;1903995;74;21094;-79
2022/12/29 00:46:30;;;;;;;13.13;9.60;;;5.20;99.90;;;;;;1796551;80;21138;-79
2022/12/29 00:49:31;;;;;;;12.68;9.30;;;5.10;99.90;;;;;;1797358;79;21359;-79
2022/12/29 00:52:23;;;;;;;13.32;9.90;;;5.10;99.90;;;;;;1860685;77;21121;-79
2022/12/29 00:55:24;;;;;;;13.90;9.85;;;5.10;99.90;;;;;;1863208;77;21085;-79
2022/12/29 00:58:16;;;;;;;12.95;9.18;;;5.00;99.90;;;;;;1847002;77;21172;-79
2022/12/29 01:01:09;;;;;;;12.85;9.88;;;5.00;99.90;;;;;;1862655;77;21124;-80
2022/12/29 01:04:01;;;;;;;13.20;10.00;;;5.00;99.90;;;;;;1862773;77;21155;-79
2022/12/29 01:06:55;;;;;;;12.20;9.40;;;5.00;99.90;;;;;;1868150;77;21116;-80
2022/12/29 01:15:55;;;;;;;13.32;9.20;;;5.00;99.90;;;;;;1942328;72;22193;-79
2022/12/29 01:18:47;;;;;;;11.43;8.65;;;5.00;99.90;;;;;;1906312;75;21149;-79
2022/12/29 01:21:38;;;;;;;11.93;9.18;;;5.00;99.90;;;;;;1884410;75;21090;-78
2022/12/29 01:24:29;;;;;;;15.53;9.15;;;4.90;99.90;;;;;;1900762;75;21110;-79
2022/12/29 01:27:20;;;;;;;14.28;9.38;;;5.00;99.90;;;;;;1895676;75;21163;-78
2022/12/29 01:30:13;;;;;;;11.68;8.43;;;5.10;99.90;;;;;;1895184;75;21151;-79
2022/12/29 01:33:05;;;;;;;12.23;8.93;;;5.10;99.90;;;;;;1895142;75;21097;-79
2022/12/29 01:35:59;;;;;;;11.90;9.28;;;5.00;99.90;;;;;;1898271;75;21165;-79
2022/12/29 01:38:50;;;;;;;12.55;9.13;;;5.00;99.90;;;;;;1897039;75;22049;-78
2022/12/29 01:41:43;;;;;;;11.22;8.55;;;5.10;99.90;;;;;;1886697;75;21185;-78
2022/12/29 01:44:53;;;;;;;13.50;9.13;;;5.10;99.90;;;;;;1906318;75;21143;-78
2022/12/29 01:47:48;;;;;;;11.48;8.65;;;5.10;99.90;;;;;;1908812;75;21106;-78
2022/12/29 01:50:42;;;;;;;10.00;7.65;;;5.00;99.90;;;;;;1897777;75;21082;-78
2022/12/29 01:53:35;;;;;;;10.65;7.72;;;5.10;99.90;;;;;;1884394;76;21147;-78
2022/12/29 01:56:27;;;;;;;10.20;7.78;;;5.10;99.90;;;;;;1906409;75;21082;-78
2022/12/29 01:59:22;;;;;;;10.72;7.55;;;5.10;99.90;;;;;;1888948;75;21157;-78
2022/12/29 02:02:13;;;;;;;9.28;7.35;;;5.10;99.90;;;;;;1895117;75;21153;-80
2022/12/29 02:05:08;;;;;;;12.07;8.15;;;5.10;99.90;;;;;;1899977;75;21148;-79
2022/12/29 02:08:00;;;;;;;12.43;8.53;;;5.00;99.90;;;;;;1897111;75;21179;-79
2022/12/29 02:10:52;;;;;;;12.98;8.35;;;5.00;99.90;;;;;;1894866;75;21647;-78
2022/12/29 02:13:45;;;;;;;12.13;7.65;;;5.00;99.90;;;;;;1892167;75;21217;-80
2022/12/29 02:16:44;;;;;;;11.93;7.83;;;5.00;99.90;;;;;;1893301;75;21091;-80
2022/12/29 02:19:56;;;;;;;10.70;7.00;;;5.00;99.90;;;;;;1900853;75;21055;-78
2022/12/29 02:22:51;;;;;;;11.12;7.90;;;5.00;99.90;;;;;;1899846;75;21103;-78
2022/12/29 02:26:05;;;;;;;10.63;7.22;;;5.00;99.90;;;;;;1883228;75;21169;-79
2022/12/29 02:29:18;;;;;;;10.10;7.20;;;5.00;99.90;;;;;;1882439;75;21171;-78
2022/12/29 02:32:13;;;;;;;10.43;7.35;;;5.00;99.90;;;;;;1882574;75;21111;-78
2022/12/29 02:37:54;;;;;;;8.25;6.87;;;5.10;99.90;;;;;;1975781;72;22178;-79
2022/12/29 02:40:48;;;;;;;8.20;6.35;;;5.20;99.90;;;;;;1933480;73;21103;-80
2022/12/29 02:43:43;;;;;;;9.08;6.50;;;5.20;99.90;;;;;;1917241;75;21066;-79
2022/12/29 02:46:39;;;;;;;8.20;6.17;;;5.30;99.90;;;;;;1917147;75;21105;-78
2022/12/29 02:49:34;;;;;;;8.00;6.10;;;5.30;99.90;;;;;;1916977;75;21062;-78
2022/12/29 02:52:28;;;;;;;8.93;6.10;;;5.40;99.90;;;;;;1917436;75;21683;-78
2022/12/29 02:55:20;;;;;;;7.83;6.20;;;5.40;99.90;;;;;;1917320;75;21517;-78
2022/12/29 02:58:20;;;;;;;8.63;6.42;;;5.40;99.90;;;;;;1917133;75;21116;-78
2022/12/29 03:01:31;;;;;;;9.03;6.45;;;5.40;99.90;;;;;;1917181;75;21185;-78
2022/12/29 03:04:28;;;;;;;8.50;5.87;;;5.30;99.90;;;;;;1917238;73;21167;-78
2022/12/29 03:07:22;;;;;;;9.28;6.65;;;5.40;99.90;;;;;;1943267;73;21628;-78
2022/12/29 03:10:22;;;;;;;8.65;6.58;;;5.30;99.90;;;;;;1929226;73;21094;-79
2022/12/29 03:16:31;;;;;;;9.58;6.65;;;5.20;99.90;;;;;;1919066;73;21118;-80
2022/12/29 03:19:26;;;;;;;8.93;6.53;;;5.10;99.90;;;;;;1917033;75;21114;-80
2022/12/29 03:22:31;;;;;;;10.00;7.00;;;5.10;99.90;;;;;;1916927;75;21167;-79
2022/12/29 03:25:27;;;;;;;12.85;6.42;;;5.20;99.90;;;;;;1939015;73;21172;-79
2022/12/29 03:28:23;;;;;;;9.68;6.58;;;5.20;99.90;;;;;;1882480;75;21102;-78
2022/12/29 03:31:16;;;;;;;13.15;6.00;;;5.20;99.90;;;;;;1930592;73;21098;-78
2022/12/29 03:34:09;;;;;;;9.95;6.53;;;5.30;99.90;;;;;;1917290;75;21114;-80
2022/12/29 03:39:42;;;;;;;9.80;6.67;;;5.30;99.90;;;;;;1972668;72;22196;-79
2022/12/29 03:42:36;;;;;;;10.82;6.35;;;5.30;99.90;;;;;;1937922;73;21094;-79
2022/12/29 03:45:27;;;;;;;9.45;6.30;;;5.30;99.90;;;;;;1933100;73;21140;-80
2022/12/29 03:48:20;;;;;;;9.73;6.60;;;5.30;99.90;;;;;;1940203;73;21200;-80
2022/12/29 03:51:12;;;;;;;8.88;5.78;;;5.30;99.90;;;;;;1922577;73;21789;-79
2022/12/29 03:54:05;;;;;;;7.35;5.62;;;5.40;99.90;;;;;;1928515;73;21159;-79
2022/12/29 03:56:57;;;;;;;7.50;5.65;;;5.40;99.90;;;;;;1934450;73;21051;-79
2022/12/29 03:59:50;;;;;;;6.80;5.50;;;5.40;99.90;;;;;;1938456;73;21106;-79
2022/12/29 04:02:41;;;;;;;9.20;5.97;;;5.40;99.90;;;;;;1916818;75;21176;-79
2022/12/29 04:05:35;;;;;;;10.53;5.58;;;5.40;99.90;;;;;;1919691;73;21164;-79
2022/12/29 04:08:26;;;;;;;8.13;5.03;;;5.50;99.90;;;;;;1931287;73;21124;-79
2022/12/29 04:11:18;;;;;;;7.10;5.17;;;5.50;99.90;;;;;;1917287;75;21177;-78
2022/12/29 04:14:10;;;;;;;6.10;4.83;;;5.50;99.90;;;;;;1917219;75;21153;-78
2022/12/29 04:17:01;;;;;;;6.62;5.20;;;5.50;99.90;;;;;;1917243;75;21128;-79
2022/12/29 04:20:59;;;;;;;7.03;4.83;;;5.50;99.90;;;;;;1917062;75;21560;-80
2022/12/29 04:22:46;;;;;;;7.15;5.00;;;5.50;99.90;;;;;;1916722;75;21103;-80
2022/12/29 04:25:38;;;;;;;7.28;5.12;;;5.50;99.90;;;;;;1916575;75;21129;-79
2022/12/29 04:28:31;;;;;;;6.92;4.80;;;5.50;99.90;;;;;;1917203;75;21207;-80
2022/12/29 04:31:27;;;;;;;7.97;4.70;;;5.50;99.90;;;;;;1902799;74;21058;-79
2022/12/29 04:34:19;;;;;;;7.12;4.80;;;5.60;99.90;;;;;;1917154;75;21064;-80
2022/12/29 04:37:11;;;;;;;6.55;4.80;;;5.60;99.90;;;;;;1917160;75;21051;-80
2022/12/29 04:40:02;;;;;;;6.85;4.55;;;5.60;99.90;;;;;;1916843;74;21160;-79
2022/12/29 04:42:54;;;;;;;6.40;4.33;;;5.60;99.90;;;;;;1916875;75;21083;-81
2022/12/29 04:45:47;;;;;;;7.47;4.78;;;5.70;99.90;;;;;;1937020;73;21035;-80
2022/12/29 04:48:40;;;;;;;8.33;4.95;;;5.80;99.90;;;;;;1905003;75;21103;-79
2022/12/29 04:51:36;;;;;;;8.15;5.03;;;5.80;99.90;;;;;;1916524;75;21586;-79
2022/12/29 04:54:29;;;;;;;6.42;4.78;;;5.80;99.90;;;;;;1904217;75;21104;-79
2022/12/29 04:57:31;;;;;;;5.58;4.15;;;5.80;99.90;;;;;;1919482;73;21255;-79
2022/12/29 05:00:24;;;;;;;6.83;4.97;;;5.80;99.90;;;;;;1929861;73;21113;-79
2022/12/29 05:03:15;;;;;;;8.78;5.95;;;5.80;99.90;;;;;;1904325;75;21175;-80
2022/12/29 05:06:09;;;;;;;8.13;5.20;;;5.90;99.90;;;;;;1904109;75;21137;-80
2022/12/29 05:09:01;;;;;;;6.42;4.22;;;5.90;99.90;;;;;;1916309;75;21095;-80
2022/12/29 05:11:52;;;;;;;6.70;4.47;;;5.90;99.90;;;;;;1916700;75;21144;-78
2022/12/29 05:14:44;;;;;;;6.20;4.40;;;6.00;99.90;;;;;;1916454;75;21636;-79
2022/12/29 05:17:35;;;;;;;7.33;4.60;;;6.00;99.90;;;;;;1904615;74;21158;-80
2022/12/29 05:20:27;;;;;;;6.75;4.45;;;6.00;99.90;;;;;;1916669;75;21527;-80
2022/12/29 05:23:20;;;;;;;6.60;4.55;;;6.00;99.90;;;;;;1904192;75;21102;-79
2022/12/29 05:26:19;;;;;;;6.97;4.30;;;6.00;99.90;;;;;;1916561;75;21147;-79
2022/12/29 05:29:12;;;;;;;6.42;4.15;;;6.00;99.90;;;;;;1866740;74;21129;-79
2022/12/29 05:32:06;;;;;;;5.28;4.33;;;6.00;99.90;;;;;;1927704;73;21126;-79
2022/12/29 05:34:58;;;;;;;6.33;4.53;;;6.10;99.90;;;;;;1914888;74;21081;-79
2022/12/29 05:37:49;;;;;;;6.25;4.45;;;6.00;99.90;;;;;;1927361;73;21192;-79
2022/12/29 05:40:41;;;;;;;7.62;5.15;;;6.00;99.90;;;;;;1916361;74;21238;-78
2022/12/29 05:43:37;;;;;;;6.00;4.37;;;6.00;99.90;;;;;;1916738;75;21055;-80
2022/12/29 05:46:48;;;;;;;6.53;4.72;;;6.00;99.90;;;;;;1923180;73;21074;-79
2022/12/29 05:49:45;;;;;;;6.10;4.70;;;6.00;99.90;;;;;;1943240;73;21173;-80
2022/12/29 05:52:44;;;;;;;6.70;4.78;;;6.00;99.90;;;;;;1916323;75;21071;-79
2022/12/29 05:55:37;;;;;;;8.23;4.30;;;6.00;99.90;;;;;;1916090;75;21125;-78
2022/12/29 05:58:34;;;;;;;6.73;4.90;;;6.10;99.90;;;;;;1916522;75;21134;-80
2022/12/29 06:01:27;;;;;;;7.00;4.20;;;6.10;99.90;;;;;;1916044;75;21106;-79
2022/12/29 06:04:22;;;;;;;6.58;4.65;;;6.20;99.90;;;;;;1916126;75;21157;-80
2022/12/29 06:07:18;;;;;;;6.87;4.35;;;6.20;99.90;;;;;;1916463;75;21548;-79
2022/12/29 06:10:13;;;;;;;6.65;3.95;;;6.20;99.90;;;;;;1916327;75;21090;-80
2022/12/29 06:13:09;;;;;;;;;;;6.20;99.90;;;;;;1956611;73;21172;-79
2022/12/29 06:16:02;;;;;;;5.05;3.37;;;6.20;99.90;;;;;;1916467;75;20143;-80
2022/12/29 06:18:57;;;;;;;6.08;3.77;;;6.20;99.90;;;;;;1916188;75;21110;-79
2022/12/29 06:21:51;;;;;;;5.83;3.85;;;6.20;99.90;;;;;;1916055;75;21183;-80
2022/12/29 06:24:43;;;;;;;5.80;4.45;;;6.30;99.90;;;;;;1915698;75;21631;-79
2022/12/29 06:27:40;;;;;;;9.40;4.55;;;6.30;99.90;;;;;;1916091;75;21101;-79
2022/12/29 06:30:35;;;;;;;10.00;5.40;;;6.30;99.90;;;;;;1927612;73;21102;-79
2022/12/29 06:33:28;;;;;;;5.75;4.30;;;6.30;99.90;;;;;;1920595;73;21058;-79
2022/12/29 06:36:22;;;;;;;6.00;3.58;;;6.30;99.90;;;;;;1941632;74;21078;-78
2022/12/29 06:39:14;;;;;;;4.80;3.58;;;6.30;99.90;;;;;;1916284;75;21160;-80
2022/12/29 06:42:11;;;;;;;6.70;3.37;;;6.30;99.90;;;;;;1904635;75;21208;-80
2022/12/29 06:45:07;;;;;;;5.95;4.12;;;6.30;99.90;;;;;;1916366;75;21158;-80
2022/12/29 06:48:00;;;;;;;5.12;3.50;;;6.40;99.90;;;;;;1916454;75;21131;-79
2022/12/29 06:50:53;;;;;;;4.97;2.90;;;6.40;99.90;;;;;;1917153;73;21113;-79
2022/12/29 06:53:48;;;;;;;4.50;3.37;;;6.40;99.90;;;;;;1918698;74;21216;-80
2022/12/29 06:56:42;;;;;;;5.22;3.10;;;6.50;99.90;;;;;;1887083;75;21067;-80
2022/12/29 06:59:36;;;;;;;5.75;3.20;;;6.50;99.90;;;;;;1925769;73;21106;-81
2022/12/29 07:02:31;;;;;;;4.05;2.87;;;6.60;99.90;;;;;;1923459;73;21090;-79
2022/12/29 07:05:27;;;;;;;5.35;3.42;;;6.50;99.90;;;;;;1904092;75;21154;-80
2022/12/29 07:08:19;;;;;;;5.33;3.67;;;6.50;99.90;;;;;;1916124;73;21105;-80
2022/12/29 07:11:15;;;;;;;5.93;3.67;;;6.50;99.90;;;;;;1916181;75;21055;-80
2022/12/29 07:14:08;;;;;;;5.42;3.90;;;6.50;99.90;;;;;;1915816;75;21192;-80
2022/12/29 07:17:06;;;;;;;5.50;4.55;;;6.50;99.90;;;;;;1903714;75;21171;-80
2022/12/29 07:19:56;;;;;;;;;;;6.50;99.90;;;;;;1886029;75;21074;-78
2022/12/29 07:22:50;;;;;;;6.40;4.60;;;6.40;99.90;;;;;;1904006;75;20225;-81
2022/12/29 07:25:44;;;;;;;5.03;3.80;;;6.40;99.90;;;;;;1916376;75;21092;-79
2022/12/29 07:28:47;;;;;;;5.25;3.65;;;6.50;99.90;;;;;;1916444;75;21098;-78
2022/12/29 07:34:23;;;;;;;6.15;4.10;;;6.30;99.90;;;;;;1957449;72;22169;-80
2022/12/29 07:37:15;;;;;;;5.53;3.72;;;6.30;99.90;;;;;;1897763;75;21090;-79
2022/12/29 07:40:10;;;;;;;4.35;3.58;;;6.30;99.90;;;;;;1894491;75;21121;-79
2022/12/29 07:43:02;;;;;;;5.90;3.90;;;6.40;99.90;;;;;;1891212;75;21163;-80
2022/12/29 07:45:55;;;;;;;5.67;3.67;;;6.30;99.90;;;;;;1883912;76;21122;-80
2022/12/29 07:48:47;;;;;;;5.95;3.62;;;6.40;99.90;;;;;;1883962;76;21102;-79
2022/12/29 07:51:38;;;;;;;4.15;3.02;;;6.50;99.90;;;;;;1906285;75;21126;-79
2022/12/29 07:54:30;;;;;;;5.75;3.42;;;6.60;99.90;;;;;;1911514;75;21127;-79
2022/12/29 07:57:25;;;;;;;5.70;3.30;;;6.60;99.90;;;;;;1894365;75;21172;-79
2022/12/29 08:00:18;;;;;;;5.10;3.08;;;6.70;99.90;;;;;;1902569;75;21129;-80
2022/12/29 08:03:10;;;;;;;4.72;3.25;;;6.70;99.90;;;;;;1897038;75;21135;-81
2022/12/29 08:06:02;;;;;;;6.53;4.80;;;6.70;99.90;;;;;;1887100;75;21134;-80
2022/12/29 08:08:53;;;;;;;4.78;2.95;;;6.70;99.90;;;;;;1906176;75;21086;-79
2022/12/29 08:11:45;;;;;;;5.47;2.77;;;6.80;99.90;;;;;;1903536;75;21105;-79
2022/12/29 08:14:36;;;;;;;3.98;2.35;;;6.80;99.90;;;;;;1906228;74;21117;-79
2022/12/29 08:17:27;;;;;;;4.05;2.62;;;6.90;99.90;;;;;;1905917;75;21563;-81
2022/12/29 08:20:19;;;;;;;6.25;2.87;;;7.00;99.90;;;;;;1905819;75;21160;-79
2022/12/29 08:23:10;;;;;;;5.95;2.90;;;7.10;99.90;;;;;;1905217;75;21165;-80
2022/12/29 08:26:04;;;;;;;4.62;2.75;;;7.30;99.90;;;;;;1899829;75;21133;-79
2022/12/29 08:28:56;;;;;;;5.47;2.60;;;7.30;99.90;;;;;;1884274;76;21142;-79
2022/12/29 08:31:47;;;;;;;4.05;2.60;;;7.40;99.90;;;;;;1906363;75;21131;-81
2022/12/29 08:34:39;;;;;;;3.83;2.52;;;7.50;99.90;;;;;;1906320;75;21208;-79
2022/12/29 08:37:33;;;;;;;6.47;2.40;;;7.50;99.90;;;;;;1902481;75;21164;-79
2022/12/29 08:40:24;;;;;;;4.78;3.25;;;7.60;99.90;;;;;;1897611;75;21114;-79
2022/12/29 08:43:16;;;;;;;4.45;2.80;;;7.70;99.90;;;;;;1894990;75;21066;-79
2022/12/29 08:46:08;;;;;;;3.70;2.65;;;7.80;99.90;;;;;;1894159;75;21094;-79
2022/12/29 08:49:00;;;;;;;5.35;3.25;;;7.80;99.90;;;;;;1895992;75;21110;-79
2022/12/29 08:51:51;;;;;;;6.08;2.50;;;7.90;99.90;;;;;;1886948;75;21087;-79
2022/12/29 08:54:43;;;;;;;4.80;2.75;;;8.00;99.90;;;;;;1905476;75;21094;-79
2022/12/29 08:57:34;;;;;;;4.25;3.10;;;8.10;99.90;;;;;;1876645;75;21164;-79
2022/12/29 09:00:27;;;;;;;5.15;2.95;;;8.00;99.90;;;;;;1882036;75;21137;-78
2022/12/29 09:03:19;;;;;;;9.20;3.72;;;8.00;99.90;;;;;;1871651;77;21090;-78
2022/12/29 09:06:12;;;;;;;5.03;3.15;;;8.00;99.90;;;;;;1883132;75;21176;-81
2022/12/29 09:09:03;;;;;;;4.70;3.00;;;8.00;99.90;;;;;;1881187;75;21132;-79
2022/12/29 09:11:55;;;;;;;4.55;2.77;;;7.90;99.90;;;;;;1882262;75;21177;-80
2022/12/29 09:14:48;;;;;;;7.50;3.40;;;7.90;99.90;;;;;;1888052;75;21096;-79
2022/12/29 09:17:45;;;;;;;6.97;3.65;;;7.90;99.90;;;;;;1883324;75;21084;-79
2022/12/29 09:20:37;;;;;;;6.42;4.12;;;7.90;99.90;;;;;;1882735;75;21165;-78
2022/12/29 09:26:52;;;;;;;5.90;3.55;;;7.80;99.90;;;;;;1889934;75;21498;-79
2022/12/29 09:29:43;;;;;;;4.78;3.55;;;7.80;99.90;;;;;;1904783;75;21052;-79
2022/12/29 09:32:34;;;;;;;4.97;3.20;;;7.80;99.90;;;;;;1900752;75;21106;-79
2022/12/29 09:35:27;;;;;;;6.50;3.60;;;7.80;99.90;;;;;;1908118;74;21139;-80
2022/12/29 09:38:20;;;;;;;4.80;3.40;;;7.80;99.90;;;;;;1915068;74;21101;-79
2022/12/29 09:41:25;;;;;;;7.08;2.87;;;7.80;99.90;;;;;;1915311;74;21132;-79
2022/12/29 09:44:19;;;;;;;4.28;3.05;;;7.80;99.90;;;;;;1906372;74;21055;-80
2022/12/29 09:47:15;;;;;;;4.55;3.47;;;8.00;99.90;;;;;;1909342;74;21059;-80
2022/12/29 09:50:11;;;;;;;3.65;2.70;;;8.00;99.90;;;;;;1904857;74;21086;-79
2022/12/29 09:53:06;;;;;;;6.05;3.33;;;8.10;99.90;;;;;;1903628;74;21113;-78
2022/12/29 09:56:00;;;;;;;5.50;3.30;;;8.30;99.90;;;;;;1923130;74;21076;-80
2022/12/29 09:58:55;;;;;;;5.62;3.83;;;8.30;99.90;;;;;;1912806;74;21192;-79
2022/12/29 10:01:49;;;;;;;5.00;3.45;;;8.40;99.90;;;;;;1908614;74;21114;-79
2022/12/29 10:04:43;;;;;;;6.45;3.87;;;8.40;99.90;;;;;;1916423;74;21117;-79
2022/12/29 10:07:40;;;;;;;6.60;3.70;;;8.50;99.90;;;;;;1914269;74;21101;-81
2022/12/29 10:10:37;;;;;;;5.53;3.62;;;8.60;99.90;;;;;;1914855;74;21087;-78
2022/12/29 10:13:39;;;;;;;5.10;4.17;;;8.70;99.90;;;;;;1892916;74;21171;-78
2022/12/29 10:16:35;;;;;;;5.85;4.10;;;8.70;99.90;;;;;;1893179;76;21155;-80
2022/12/29 10:19:42;;;;;;;8.60;3.47;;;8.70;99.90;;;;;;1907293;74;21182;-79
2022/12/29 10:22:45;;;;;;;4.58;3.60;;;8.70;99.90;;;;;;1905901;74;21114;-79
2022/12/29 10:25:39;;;;;;;7.08;3.92;;;8.70;99.90;;;;;;1903850;74;21084;-79
2022/12/29 10:28:36;;;;;;;6.50;3.30;;;8.70;99.90;;;;;;1904063;74;21629;-78
2022/12/29 10:31:31;;;;;;;5.35;3.75;;;8.60;99.90;;;;;;1902652;74;21132;-79
2022/12/29 10:37:15;;;;;;;7.25;3.83;;;8.60;99.90;;;;;;1954529;72;22167;-79
2022/12/29 10:40:17;;;;;;;6.08;3.40;;;8.70;99.90;;;;;;1895246;74;21261;-79
2022/12/29 10:43:14;;;;;;;5.12;3.50;;;8.70;99.90;;;;;;1863098;77;21134;-79
2022/12/29 10:46:10;;;;;;;9.03;3.25;;;8.70;99.90;;;;;;1862246;77;21552;-81
2022/12/29 10:49:02;;;;;;;5.50;3.05;;;8.90;99.90;;;;;;1859904;77;21191;-79
2022/12/29 10:51:57;;;;;;;6.92;3.47;;;8.90;99.90;;;;;;1823400;78;21156;-79
2022/12/29 10:54:51;;;;;;;5.08;3.17;;;9.00;99.90;;;;;;1824008;78;21128;-79
2022/12/29 10:57:44;;;;;;;5.72;3.42;;;9.10;99.90;;;;;;1861951;77;21135;-79
2022/12/29 11:00:36;;;;;;;4.72;3.30;;;9.30;99.90;;;;;;1825549;77;21937;-79
2022/12/29 11:03:52;;;;;;;7.80;4.08;;;9.40;99.90;;;;;;1844105;77;21080;-79
2022/12/29 11:06:45;;;;;;;5.95;2.95;;;9.50;99.90;;;;;;1809397;79;21199;-80
2022/12/29 11:09:39;;;;;;;4.12;3.00;;;9.60;99.90;;;;;;1787807;80;21175;-79
2022/12/29 11:12:33;;;;;;;4.85;3.15;;;9.70;99.90;;;;;;1791757;78;21545;-79
2022/12/29 11:15:25;;;;;;;4.42;3.17;;;9.80;99.90;;;;;;1862342;77;21108;-79
2022/12/29 11:18:26;;;;;;;3.77;3.05;;;9.90;99.90;;;;;;1860782;77;21178;-79
2022/12/29 11:21:30;;;;;;;7.92;3.52;;;10.00;99.90;;;;;;1845222;77;21081;-79
2022/12/29 11:24:24;;;;;;;5.20;3.40;;;10.10;99.90;;;;;;1790388;80;21212;-79
2022/12/29 11:27:20;;;;;;;4.85;3.10;;;10.10;99.90;;;;;;1859610;77;21215;-79
2022/12/29 11:33:06;;;;;;;5.80;3.87;;;10.30;99.90;;;;;;1953424;72;22288;-79
2022/12/29 11:36:02;;;;;;;9.43;4.33;;;10.40;99.90;;;;;;1900984;75;21098;-78
2022/12/29 11:38:55;;;;;;;6.35;3.70;;;10.50;99.90;;;;;;1896510;75;22171;-78
2022/12/29 11:41:52;;;;;;;5.87;3.20;;;10.60;99.90;;;;;;1887042;75;21091;-78
2022/12/29 11:44:47;;;;;;;9.77;3.40;;;10.70;99.90;;;;;;1910554;75;21103;-78
2022/12/29 11:47:39;;;;;;;6.87;3.15;;;10.80;99.90;;;;;;1894978;75;21094;-78
2022/12/29 11:50:33;;;;;;;4.65;2.83;;;10.90;99.90;;;;;;1900078;75;21152;-78
2022/12/29 11:53:27;;;;;;;4.80;3.22;;;11.00;99.90;;;;;;1895265;75;21105;-77
2022/12/29 11:56:22;;;;;;;5.22;3.30;;;11.10;99.90;;;;;;1894816;75;21131;-78
2022/12/29 11:59:41;;;;;;;5.35;2.70;;;11.20;99.90;;;;;;1894591;75;21090;-78
2022/12/29 12:05:41;;;;;;;3.98;2.77;;;11.30;99.90;;;;;;1953155;72;22261;-80
2022/12/29 12:11:21;;;;;;;7.17;2.90;;;11.40;99.90;;;;;;1954682;72;22627;-79
2022/12/29 12:14:17;;;;;;;5.85;2.75;;;11.50;99.90;;;;;;1895352;74;21055;-79
2022/12/29 12:17:19;;;;;;;7.97;3.47;;;11.70;99.90;;;;;;1890958;75;21222;-78
2022/12/29 12:20:19;;;;;;;5.33;3.15;;;11.80;99.90;;;;;;1883571;75;21090;-78
2022/12/29 12:23:18;;;;;;;5.45;3.00;;;11.90;99.90;;;;;;1883792;76;21161;-80
2022/12/29 12:26:15;;;;;;;5.25;3.30;;;11.90;99.90;;;;;;1901948;75;21121;-79
2022/12/29 12:29:11;;;;;;;5.87;3.17;;;12.00;99.90;;;;;;1920058;74;21099;-79
2022/12/29 12:32:07;;;;;;;5.85;3.20;;;12.00;99.90;;;;;;1894152;75;21063;-79
2022/12/29 12:34:59;;;;;;;6.78;3.02;;;12.10;99.90;;;;;;1889142;75;21120;-79
2022/12/29 12:37:56;;;;;;;6.40;3.30;;;12.10;99.90;;;;;;1906133;75;21132;-79
2022/12/29 12:41:01;;;;;;;7.03;4.05;;;12.20;99.90;;;;;;1883853;76;21105;-78
2022/12/29 12:43:59;;;;;;;5.40;3.40;;;12.30;99.90;;;;;;1900368;75;21083;-79
2022/12/29 12:47:24;;;;;;;5.67;3.72;;;12.50;99.90;;;;;;1895556;75;21623;-78
2022/12/29 12:50:28;;;;;;;6.60;3.70;;;12.50;99.90;;;;;;1897941;75;21211;-78
2022/12/29 12:53:44;;;;;;;9.55;3.33;;;12.50;99.90;;;;;;1895378;75;21110;-79
2022/12/29 12:56:59;;;;;;;5.75;3.30;;;12.60;99.90;;;;;;1895569;75;21223;-79
2022/12/29 12:59:56;;;;;;;5.58;2.80;;;12.70;99.90;;;;;;1916977;75;21107;-79
2022/12/29 13:02:54;;;;;;;5.35;3.05;;;12.80;99.90;;;;;;1894486;75;21093;-79
2022/12/29 13:06:06;;;;;;;4.70;2.70;;;12.80;99.90;;;;;;1894670;75;21176;-80
2022/12/29 13:09:06;;;;;;;5.95;2.67;;;12.90;99.90;;;;;;1894479;75;21110;-79
2022/12/29 13:12:10;;;;;;;4.70;2.98;;;13.00;99.90;;;;;;1902765;74;21133;-80
2022/12/29 13:15:09;;;;;;;4.05;2.60;;;12.90;99.90;;;;;;1893027;75;21348;-79
2022/12/29 13:18:00;;;;;;;;;;;12.90;99.90;;;;;;1913470;74;21148;-79
2022/12/29 13:20:55;;;;;;;3.83;2.55;;;13.00;99.90;;;;;;1904785;74;20179;-79
2022/12/29 13:26:34;;;;;;;5.60;3.02;;;13.00;99.90;;;;;;1940306;72;28663;-80
2022/12/29 13:29:30;;;;;;;5.12;2.50;;;13.20;99.90;;;;;;1901549;75;21083;-79
2022/12/29 13:32:28;;;;;;;3.35;2.30;;;13.10;99.90;;;;;;1897572;75;21246;-78
2022/12/29 13:35:28;;;;;;;4.03;2.60;;;13.10;99.90;;;;;;1896859;75;21050;-78
2022/12/29 13:38:23;;;;;;;3.85;2.60;;;13.10;99.90;;;;;;1888779;75;21809;-78
2022/12/29 13:41:17;;;;;;;4.85;2.72;;;13.00;99.90;;;;;;1894887;75;21113;-78
2022/12/29 13:44:12;;;;;;;4.92;2.80;;;13.00;99.90;;;;;;1897919;75;21510;-78
2022/12/29 13:47:08;;;;;;;4.67;2.80;;;13.00;99.90;;;;;;1884117;76;21071;-78
2022/12/29 13:50:02;;;;;;;3.83;2.60;;;13.00;99.90;;;;;;1906534;75;21105;-78
2022/12/29 13:52:58;;;;;;;6.40;2.95;;;13.10;99.90;;;;;;1906078;75;21055;-78
2022/12/29 13:55:53;;;;;;;8.18;3.25;;;13.10;99.90;;;;;;1884788;75;21452;-78
2022/12/29 13:58:48;;;;;;;6.87;3.00;;;13.20;99.90;;;;;;1898810;75;21120;-79
2022/12/29 14:01:42;;;;;;;5.12;3.12;;;13.20;99.90;;;;;;1898004;75;21080;-78
2022/12/29 14:04:34;;;;;;;6.28;3.42;;;13.20;99.90;;;;;;1885185;75;21051;-78
2022/12/29 14:07:26;;;;;;;5.05;3.08;;;13.30;99.90;;;;;;1910332;75;21257;-78
2022/12/29 14:10:30;;;;;;;6.35;2.87;;;13.20;99.90;;;;;;1894755;75;21063;-79
2022/12/29 14:13:23;;;;;;;5.72;3.02;;;13.20;99.90;;;;;;1897182;75;21098;-79
2022/12/29 14:16:30;;;;;;;4.92;3.00;;;13.10;99.90;;;;;;1899437;75;21141;-78
2022/12/29 14:19:26;;;;;;;7.70;3.58;;;13.10;99.90;;;;;;1897320;75;21094;-79
2022/12/29 14:22:25;;;;;;;6.47;3.20;;;13.00;99.90;;;;;;1894847;75;21161;-78
2022/12/29 14:25:57;;;;;;;6.12;2.72;;;13.00;99.90;;;;;;1894688;74;21100;-78
2022/12/29 14:28:49;;;;;;;6.12;3.35;;;12.90;99.90;;;;;;1885804;75;21246;-80
2022/12/29 14:31:41;;;;;;;6.67;3.17;;;12.90;99.90;;;;;;1906032;75;21094;-79
2022/12/29 14:34:42;;;;;;;4.78;3.40;;;12.90;99.90;;;;;;1883831;76;21086;-79
2022/12/29 14:37:38;;;;;;;5.17;3.17;;;12.80;99.90;;;;;;1902222;75;21153;-78
2022/12/29 14:40:30;;;;;;;6.00;3.27;;;12.80;99.90;;;;;;1885539;75;21224;-78
2022/12/29 14:43:25;;;;;;;7.83;3.85;;;12.90;99.90;;;;;;1894239;75;21160;-78
2022/12/29 14:46:17;;;;;;;7.05;3.27;;;12.90;99.90;;;;;;1894429;75;21106;-78
2022/12/29 14:49:16;;;;;;;7.78;3.85;;;12.90;99.90;;;;;;1894527;75;21129;-79
2022/12/29 14:52:14;;;;;;;7.40;4.58;;;12.80;99.90;;;;;;1901836;75;21568;-79
2022/12/29 14:58:16;;;;;;;7.12;4.00;;;12.70;99.90;;;;;;1938847;72;28012;-80
2022/12/29 15:01:16;;;;;;;5.28;3.40;;;12.80;99.90;;;;;;1908631;74;21188;-79
2022/12/29 15:04:17;;;;;;;6.03;2.92;;;12.70;99.90;;;;;;1906211;75;21216;-79
2022/12/29 15:07:10;;;;;;;7.70;3.50;;;12.70;99.90;;;;;;1906106;75;21117;-79
2022/12/29 15:10:07;;;;;;;7.25;2.80;;;12.70;99.90;;;;;;1901625;75;21135;-79
2022/12/29 15:13:01;;;;;;;17.73;3.52;;;12.70;99.90;;;;;;1902410;75;21175;-79
2022/12/29 15:15:53;;;;;;;6.22;3.40;;;12.80;99.90;;;;;;1906467;75;21607;-79
2022/12/29 15:18:44;;;;;;;6.05;2.85;;;12.80;99.90;;;;;;1906258;75;21047;-79
2022/12/29 15:21:37;;;;;;;5.97;2.55;;;12.70;99.90;;;;;;1868399;76;21179;-79
2022/12/29 15:24:28;;;;;;;5.87;2.27;;;12.80;99.90;;;;;;1883981;75;21089;-80
2022/12/29 15:27:22;;;;;;;5.53;3.52;;;12.90;99.90;;;;;;1883986;75;21082;-80
2022/12/29 15:30:16;;;;;;;5.45;2.50;;;13.00;99.90;;;;;;1889992;75;21608;-79
2022/12/29 15:33:19;;;;;;;5.62;2.60;;;12.90;99.90;;;;;;1893368;75;21621;-80
2022/12/29 15:36:15;;;;;;;6.33;3.17;;;12.90;99.90;;;;;;1915738;75;21099;-79
2022/12/29 15:39:20;;;;;;;6.55;3.47;;;12.70;99.90;;;;;;1899682;75;21063;-79
2022/12/29 15:42:19;;;;;;;5.35;3.42;;;12.60;99.90;;;;;;1897968;75;21161;-79
2022/12/29 15:45:14;;;;;;;8.05;3.67;;;12.50;99.90;;;;;;1894524;75;21102;-79
2022/12/29 15:48:08;;;;;;;5.90;2.98;;;12.40;99.90;;;;;;1887964;75;21172;-79
2022/12/29 15:50:59;;;;;;;8.68;3.40;;;12.30;99.90;;;;;;1885405;75;21063;-79
2022/12/29 15:53:52;;;;;;;5.50;3.40;;;12.20;99.90;;;;;;1898430;75;21153;-79
2022/12/29 15:56:45;;;;;;;5.67;3.92;;;12.20;99.90;;;;;;1897548;74;21110;-79
2022/12/29 15:59:36;;;;;;;12.90;9.58;;;12.20;99.90;;;;;;1904083;74;21085;-80
2022/12/29 16:02:28;;;;;;;8.55;4.97;;;12.10;99.90;;;;;;1923852;74;21102;-79
2022/12/29 16:05:21;;;;;;;19.65;15.08;;;12.10;99.90;;;;;;1913709;74;21542;-79
2022/12/29 16:08:27;;;;;;;8.78;5.80;;;12.10;99.90;;;;;;1909038;74;21098;-79
2022/12/29 16:11:23;;;;;;;9.35;4.25;;;12.10;99.90;;;;;;1906824;74;21164;-80
2022/12/29 16:17:00;;;;;;;7.03;4.10;;;12.10;99.90;;;;;;1950963;72;22259;-80
2022/12/29 16:19:53;;;;;;;7.75;3.42;;;12.00;99.90;;;;;;1896979;75;21122;-79
2022/12/29 16:22:49;;;;;;;7.17;4.28;;;11.90;99.90;;;;;;1899489;75;21074;-79
2022/12/29 16:25:41;;;;;;;7.35;4.45;;;11.90;99.90;;;;;;1895257;75;21094;-78